Time;durP1;ratioP1;P1;durP2;ratioP2;P2;SDS_P1;SDS_P2;PMS_P1;PMS_P2;Temp;Humidity;BMP_temperature;BMP_pressure;BME280_temperature;BME280_humidity;BME280_pressure;Samples;Min_cycle;Max_cycle;Signal;HPM_P1;HPM_P2
2022/03/12 00:00:02;;;;;;;8.90;6.53;;;6.90;84.00;;;;;;5095204;28;20044;-60
2022/03/12 00:02:31;;;;;;;8.70;6.18;;;6.80;85.10;;;;;;5075032;28;20051;-60
2022/03/12 00:04:57;;;;;;;10.75;6.63;;;6.80;84.40;;;;;;5074814;28;20032;-60
2022/03/12 00:07:23;;;;;;;11.75;6.60;;;6.80;85.30;;;;;;5074840;28;20067;-60
2022/03/12 00:09:50;;;;;;;10.85;6.40;;;6.70;85.90;;;;;;5074795;28;20032;-60
2022/03/12 00:12:19;;;;;;;10.57;5.65;;;6.70;85.30;;;;;;5074684;28;20123;-60
2022/03/12 00:14:48;;;;;;;12.55;6.20;;;6.70;85.60;;;;;;5074918;28;20041;-59
2022/03/12 00:17:15;;;;;;;13.13;6.80;;;6.70;84.70;;;;;;5073274;28;20068;-60
2022/03/12 00:19:42;;;;;;;14.35;6.90;;;6.70;85.40;;;;;;5074311;28;20501;-60
2022/03/12 00:22:08;;;;;;;14.57;6.90;;;6.70;85.60;;;;;;5074522;28;20075;-60
2022/03/12 00:24:34;;;;;;;10.07;6.55;;;6.70;85.30;;;;;;5074434;28;20064;-59
2022/03/12 00:27:01;;;;;;;11.35;5.90;;;6.70;85.40;;;;;;5074326;28;20048;-60
2022/03/12 00:29:27;;;;;;;9.52;6.50;;;6.70;86.00;;;;;;5074624;28;20123;-59
2022/03/12 00:31:54;;;;;;;13.27;6.53;;;6.70;85.20;;;;;;5074168;28;20135;-60
2022/03/12 00:34:20;;;;;;;10.82;5.85;;;6.70;85.90;;;;;;5074327;28;20079;-60
2022/03/12 00:36:47;;;;;;;13.65;6.60;;;6.60;85.90;;;;;;5074343;28;20044;-60
2022/03/12 00:39:15;;;;;;;11.00;6.60;;;6.70;85.00;;;;;;5074159;28;20041;-60
2022/03/12 00:41:44;;;;;;;12.35;6.38;;;6.60;85.40;;;;;;5074402;28;20041;-59
2022/03/12 00:44:17;;;;;;;10.68;6.60;;;6.60;86.20;;;;;;5074251;28;20390;-60
2022/03/12 00:46:44;;;;;;;14.73;6.57;;;6.60;85.60;;;;;;5074183;28;20032;-60
2022/03/12 00:49:09;;;;;;;10.95;6.32;;;6.60;86.60;;;;;;5073954;28;20041;-60
2022/03/12 00:51:38;;;;;;;14.73;6.85;;;6.60;87.10;;;;;;5074261;28;20098;-60
2022/03/12 00:54:04;;;;;;;12.85;7.20;;;6.50;86.40;;;;;;5074009;28;20037;-60
2022/03/12 00:56:30;;;;;;;13.00;6.18;;;6.60;87.30;;;;;;5073907;28;20049;-60
2022/03/12 00:58:57;;;;;;;10.55;6.40;;;6.60;87.10;;;;;;5074261;28;20040;-60
2022/03/12 01:01:25;;;;;;;9.90;7.15;;;6.60;86.00;;;;;;5074051;28;20079;-60
2022/03/12 01:03:51;;;;;;;11.45;6.70;;;6.60;85.70;;;;;;5089386;28;20047;-60
2022/03/12 01:06:18;;;;;;;12.32;6.72;;;6.60;87.50;;;;;;5094067;28;20032;-60
2022/03/12 01:08:46;;;;;;;13.27;6.15;;;6.50;87.40;;;;;;5092716;28;20155;-60
2022/03/12 01:11:12;;;;;;;10.15;6.18;;;6.50;88.00;;;;;;5093958;28;20044;-60
2022/03/12 01:13:38;;;;;;;14.30;6.30;;;6.50;88.60;;;;;;5093963;28;20205;-60
2022/03/12 01:16:06;;;;;;;11.63;6.63;;;6.40;88.20;;;;;;5093857;28;20040;-60
2022/03/12 01:18:35;;;;;;;12.45;6.28;;;6.50;88.00;;;;;;5093959;28;20729;-60
2022/03/12 01:21:10;;;;;;;9.80;5.80;;;6.40;87.80;;;;;;5093529;28;20043;-60
2022/03/12 01:23:36;;;;;;;11.00;6.07;;;6.40;88.40;;;;;;5093758;28;20043;-60
2022/03/12 01:26:02;;;;;;;10.73;6.30;;;6.40;88.40;;;;;;5093618;28;20044;-60
2022/03/12 01:28:27;;;;;;;13.88;7.50;;;6.40;89.20;;;;;;5091269;28;20058;-60
2022/03/12 01:30:54;;;;;;;10.80;6.93;;;6.30;89.50;;;;;;5092891;28;20048;-60
2022/03/12 01:33:20;;;;;;;11.30;6.38;;;6.40;90.20;;;;;;5093264;28;20083;-60
2022/03/12 01:35:46;;;;;;;16.30;6.97;;;6.30;90.20;;;;;;5092993;28;20032;-60
2022/03/12 01:38:12;;;;;;;9.73;6.05;;;6.30;90.00;;;;;;5093415;28;20352;-59
2022/03/12 01:40:38;;;;;;;12.90;6.88;;;6.30;90.40;;;;;;5093491;28;20085;-60
2022/03/12 01:43:05;;;;;;;11.63;6.13;;;6.30;90.60;;;;;;5093175;28;20036;-60
2022/03/12 01:45:31;;;;;;;12.00;6.07;;;6.20;90.90;;;;;;5093179;28;20122;-60
2022/03/12 01:48:00;;;;;;;12.18;6.63;;;6.20;90.50;;;;;;5093124;28;20146;-60
2022/03/12 01:50:30;;;;;;;9.48;6.85;;;6.20;90.30;;;;;;5093149;28;20076;-60
2022/03/12 01:52:59;;;;;;;11.93;6.15;;;6.20;90.70;;;;;;5093169;28;20036;-60
2022/03/12 01:55:30;;;;;;;;;;;6.30;90.10;;;;;;5093446;28;20032;-60
2022/03/12 01:57:57;;;;;;;10.55;6.45;;;6.20;90.10;;;;;;5093034;28;19915;-60
2022/03/12 02:00:25;;;;;;;11.93;6.90;;;6.20;90.50;;;;;;5092856;28;20089;-60
2022/03/12 02:02:54;;;;;;;14.95;6.57;;;6.20;90.00;;;;;;5092675;28;20436;-60
2022/03/12 02:05:27;;;;;;;12.50;6.82;;;6.20;90.70;;;;;;5092952;28;20122;-60
2022/03/12 02:07:53;;;;;;;11.82;7.18;;;6.20;90.60;;;;;;5093169;28;20113;-60
2022/03/12 02:10:20;;;;;;;11.70;6.85;;;6.20;91.20;;;;;;5092809;28;20474;-60
2022/03/12 02:12:46;;;;;;;9.32;6.63;;;6.10;91.10;;;;;;5092691;28;20044;-60
2022/03/12 02:15:12;;;;;;;10.88;7.20;;;6.10;91.30;;;;;;5092599;28;20551;-59
2022/03/12 02:17:38;;;;;;;17.42;6.97;;;6.10;91.50;;;;;;5092875;28;20139;-60
2022/03/12 02:20:05;;;;;;;10.98;6.90;;;6.10;91.30;;;;;;5092790;28;20140;-60
2022/03/12 02:22:32;;;;;;;10.52;6.90;;;6.10;91.90;;;;;;5092074;28;20398;-60
2022/03/12 02:24:58;;;;;;;13.20;6.47;;;6.10;91.50;;;;;;5092690;28;20048;-60
2022/03/12 02:27:25;;;;;;;14.93;7.43;;;6.10;91.90;;;;;;5092289;28;20055;-60
2022/03/12 02:29:57;;;;;;;10.90;7.20;;;6.00;91.80;;;;;;5092296;28;20088;-60
2022/03/12 02:32:23;;;;;;;14.07;7.03;;;6.10;92.10;;;;;;5092433;28;20048;-60
2022/03/12 02:34:50;;;;;;;12.48;6.70;;;6.10;91.90;;;;;;5092531;28;20039;-59
2022/03/12 02:37:30;;;;;;;13.13;6.47;;;6.10;91.90;;;;;;5092299;28;20040;-59
2022/03/12 02:39:58;;;;;;;11.13;7.03;;;6.10;92.00;;;;;;5092331;28;20378;-59
2022/03/12 02:42:24;;;;;;;18.38;7.40;;;6.10;91.80;;;;;;5086982;28;20040;-59
2022/03/12 02:44:50;;;;;;;10.02;6.13;;;6.10;92.00;;;;;;5071912;28;20470;-60
2022/03/12 02:47:22;;;;;;;13.80;7.47;;;6.10;91.80;;;;;;5071757;28;20040;-59
2022/03/12 02:49:53;;;;;;;9.55;6.40;;;6.10;92.20;;;;;;5071499;28;20040;-59
2022/03/12 02:52:21;;;;;;;11.23;7.57;;;6.00;92.50;;;;;;5072126;28;20036;-60
2022/03/12 02:54:49;;;;;;;10.43;6.70;;;6.10;92.20;;;;;;5072098;28;20878;-60
2022/03/12 02:57:16;;;;;;;12.55;7.53;;;6.00;92.60;;;;;;5072207;28;20032;-59
2022/03/12 02:59:43;;;;;;;12.63;6.55;;;6.10;92.20;;;;;;5070821;28;20052;-60
2022/03/12 03:02:11;;;;;;;12.65;6.75;;;6.00;92.20;;;;;;5072138;28;20512;-59
2022/03/12 03:04:38;;;;;;;9.95;6.50;;;6.10;92.10;;;;;;5071977;28;20055;-60
2022/03/12 03:07:05;;;;;;;11.63;7.47;;;6.10;92.10;;;;;;5071636;28;20040;-59
2022/03/12 03:09:32;;;;;;;10.23;6.82;;;6.10;92.00;;;;;;5071592;28;20032;-59
2022/03/12 03:12:02;;;;;;;12.57;7.43;;;6.10;92.10;;;;;;5071532;28;20512;-60
2022/03/12 03:14:28;;;;;;;11.50;6.70;;;6.10;92.60;;;;;;5071882;28;20040;-60
2022/03/12 03:16:54;;;;;;;8.77;6.82;;;6.10;92.60;;;;;;5071740;28;20115;-59
2022/03/12 03:19:25;;;;;;;10.75;6.70;;;6.10;92.50;;;;;;5071557;28;20037;-60
2022/03/12 03:21:55;;;;;;;8.88;6.45;;;6.10;92.50;;;;;;5071508;28;20119;-60
2022/03/12 03:24:22;;;;;;;12.63;6.93;;;6.10;92.30;;;;;;5070126;28;20386;-60
2022/03/12 03:26:48;;;;;;;9.45;6.85;;;6.10;92.30;;;;;;5071832;28;20090;-60
2022/03/12 03:29:15;;;;;;;12.90;7.18;;;6.10;92.60;;;;;;5071509;28;20045;-60
2022/03/12 03:31:40;;;;;;;9.45;6.60;;;6.00;92.70;;;;;;5071293;28;20503;-59
2022/03/12 03:34:06;;;;;;;11.50;6.75;;;6.10;92.40;;;;;;5071533;28;20037;-59
2022/03/12 03:36:32;;;;;;;13.88;7.40;;;6.00;92.60;;;;;;5071434;28;20052;-59
2022/03/12 03:38:57;;;;;;;17.85;7.80;;;6.10;92.50;;;;;;5071625;28;20028;-60
2022/03/12 03:41:23;;;;;;;9.77;7.40;;;6.10;92.70;;;;;;5071524;28;20040;-59
2022/03/12 03:43:51;;;;;;;9.95;7.38;;;6.10;92.40;;;;;;5071635;28;20048;-59
2022/03/12 03:46:20;;;;;;;13.57;6.68;;;6.00;92.90;;;;;;5071179;28;20083;-60
2022/03/12 03:48:48;;;;;;;10.57;7.05;;;6.00;92.60;;;;;;5071244;28;20048;-60
2022/03/12 03:51:14;;;;;;;11.85;7.28;;;6.00;92.30;;;;;;5071657;28;20039;-60
2022/03/12 03:53:39;;;;;;;9.52;7.28;;;6.10;92.20;;;;;;5071351;28;20041;-59
2022/03/12 03:56:05;;;;;;;9.77;6.93;;;6.10;92.40;;;;;;5071471;28;20116;-60
2022/03/12 03:58:32;;;;;;;12.70;6.68;;;6.10;92.60;;;;;;5071268;28;20052;-59
2022/03/12 04:01:04;;;;;;;10.57;6.68;;;6.00;92.60;;;;;;5074377;28;20490;-59
2022/03/12 04:03:34;;;;;;;10.85;6.78;;;6.00;92.30;;;;;;5074874;28;20037;-59
2022/03/12 04:06:04;;;;;;;10.10;6.90;;;6.10;92.70;;;;;;5090447;28;20056;-60
2022/03/12 04:08:31;;;;;;;12.18;7.13;;;6.00;92.80;;;;;;5073495;28;20491;-59
2022/03/12 04:10:57;;;;;;;10.05;6.82;;;6.00;92.80;;;;;;5074814;28;20075;-59
2022/03/12 04:13:24;;;;;;;11.52;6.80;;;6.00;92.60;;;;;;5073503;28;20048;-59
2022/03/12 04:15:51;;;;;;;14.00;6.50;;;6.00;92.60;;;;;;5074564;28;20040;-60
2022/03/12 04:18:21;;;;;;;16.15;7.45;;;5.90;92.50;;;;;;5091681;28;20043;-60
2022/03/12 04:20:47;;;;;;;;;;;6.00;92.70;;;;;;5095584;28;20044;-60
2022/03/12 04:23:18;;;;;;;9.80;6.40;;;6.00;92.50;;;;;;5076062;28;20027;-60
2022/03/12 04:25:45;;;;;;;9.55;6.68;;;5.90;92.80;;;;;;5094819;28;20044;-59
2022/03/12 04:28:11;;;;;;;13.32;7.82;;;5.90;92.90;;;;;;5094766;28;20048;-60
2022/03/12 04:30:38;;;;;;;10.18;6.85;;;5.90;92.60;;;;;;5094333;28;20032;-60
2022/03/12 04:33:04;;;;;;;10.38;6.35;;;5.90;93.00;;;;;;5094693;28;20412;-60
2022/03/12 04:35:32;;;;;;;11.05;6.65;;;5.90;93.10;;;;;;5094737;28;20028;-60
2022/03/12 04:37:57;;;;;;;12.13;7.22;;;5.90;93.10;;;;;;5094619;28;20044;-60
2022/03/12 04:40:25;;;;;;;11.45;7.43;;;5.80;92.90;;;;;;5110365;28;20097;-60
2022/03/12 04:42:51;;;;;;;11.93;6.75;;;5.80;93.00;;;;;;5094461;28;20386;-60
2022/03/12 04:45:23;;;;;;;10.20;6.78;;;5.80;92.90;;;;;;5094184;28;20063;-62
2022/03/12 04:47:50;;;;;;;13.23;7.70;;;5.80;93.50;;;;;;5094182;28;20036;-62
2022/03/12 04:50:18;;;;;;;10.82;7.30;;;5.80;93.20;;;;;;5094248;28;20038;-63
2022/03/12 04:52:45;;;;;;;12.15;6.60;;;5.80;93.40;;;;;;5094453;28;20087;-62
2022/03/12 04:55:14;;;;;;;13.45;6.70;;;5.80;93.80;;;;;;5094376;28;20143;-62
2022/03/12 04:57:40;;;;;;;10.38;7.07;;;5.80;93.20;;;;;;5094039;28;20493;-62
2022/03/12 05:00:10;;;;;;;9.02;6.88;;;5.70;93.20;;;;;;5094301;28;20047;-61
2022/03/12 05:02:36;;;;;;;9.30;6.38;;;5.80;93.40;;;;;;5094009;28;20093;-61
2022/03/12 05:05:02;;;;;;;16.80;7.28;;;5.70;93.50;;;;;;5093931;28;20043;-63
2022/03/12 05:07:27;;;;;;;11.32;6.68;;;5.70;93.40;;;;;;5093995;28;20055;-61
2022/03/12 05:09:56;;;;;;;9.70;6.28;;;5.70;93.40;;;;;;5094108;28;20817;-63
2022/03/12 05:12:23;;;;;;;9.80;6.72;;;5.70;93.80;;;;;;5093021;28;20397;-62
2022/03/12 05:14:51;;;;;;;13.57;7.00;;;5.70;93.40;;;;;;5093918;28;20390;-61
2022/03/12 05:17:17;;;;;;;10.85;6.22;;;5.70;93.60;;;;;;5092755;28;20036;-63
2022/03/12 05:19:43;;;;;;;12.32;6.78;;;5.70;93.60;;;;;;5093755;28;20040;-61
2022/03/12 05:22:09;;;;;;;9.00;6.72;;;5.70;93.60;;;;;;5093788;28;20040;-61
2022/03/12 05:24:35;;;;;;;11.10;6.57;;;5.70;94.10;;;;;;5093808;28;20040;-61
2022/03/12 05:27:01;;;;;;;10.52;6.75;;;5.70;94.00;;;;;;5093567;28;20038;-62
2022/03/12 05:29:28;;;;;;;10.07;6.20;;;5.70;93.80;;;;;;5093670;28;20028;-63
2022/03/12 05:31:54;;;;;;;10.90;7.18;;;5.70;94.00;;;;;;5093340;28;20060;-62
2022/03/12 05:34:23;;;;;;;9.98;6.60;;;5.70;94.00;;;;;;5093418;28;20051;-61
2022/03/12 05:36:49;;;;;;;8.10;6.28;;;5.70;93.80;;;;;;5093402;28;20036;-63
2022/03/12 05:39:15;;;;;;;9.07;6.80;;;5.70;94.10;;;;;;5092331;28;20090;-62
2022/03/12 05:41:44;;;;;;;11.32;6.60;;;5.70;94.00;;;;;;5093457;28;20044;-62
2022/03/12 05:44:13;;;;;;;10.18;7.05;;;5.70;94.00;;;;;;5093490;28;20040;-62
2022/03/12 05:46:39;;;;;;;12.90;6.43;;;5.70;94.20;;;;;;5092385;28;20051;-61
2022/03/12 05:49:05;;;;;;;8.95;6.45;;;5.70;94.20;;;;;;5093234;28;20688;-61
2022/03/12 05:51:31;;;;;;;9.90;6.70;;;5.70;93.70;;;;;;5093375;28;20101;-61
2022/03/12 05:53:58;;;;;;;11.50;7.20;;;5.70;94.20;;;;;;5093010;28;20470;-62
2022/03/12 05:56:23;;;;;;;8.90;6.22;;;5.70;94.00;;;;;;5093280;28;20093;-62
2022/03/12 05:58:49;;;;;;;11.40;6.63;;;5.70;94.20;;;;;;5093161;28;20044;-62
2022/03/12 06:01:15;;;;;;;10.57;7.07;;;5.70;94.40;;;;;;5092968;28;20509;-61
2022/03/12 06:03:41;;;;;;;8.93;6.75;;;5.70;93.90;;;;;;5108407;28;20039;-61
2022/03/12 06:06:08;;;;;;;10.52;6.15;;;5.70;93.70;;;;;;5092149;28;20097;-62
2022/03/12 06:08:34;;;;;;;15.20;6.80;;;5.70;94.50;;;;;;5092531;28;20047;-61
2022/03/12 06:11:00;;;;;;;11.05;6.93;;;5.60;93.90;;;;;;5092896;28;20042;-61
2022/03/12 06:13:27;;;;;;;10.90;6.20;;;5.60;93.70;;;;;;5092735;28;20144;-61
2022/03/12 06:15:58;;;;;;;10.40;6.53;;;5.60;93.90;;;;;;5091470;28;20036;-61
2022/03/12 06:18:29;;;;;;;12.27;7.40;;;5.60;94.00;;;;;;5092591;28;20453;-62
2022/03/12 06:20:55;;;;;;;9.82;6.13;;;5.60;93.90;;;;;;5092590;28;20040;-62
2022/03/12 06:23:21;;;;;;;9.50;6.30;;;5.60;93.40;;;;;;5092401;28;20375;-62
2022/03/12 06:25:46;;;;;;;11.38;7.03;;;5.70;93.30;;;;;;5092592;28;20032;-61
2022/03/12 06:28:12;;;;;;;8.57;6.03;;;5.60;93.50;;;;;;5092476;28;20040;-62
2022/03/12 06:30:42;;;;;;;13.52;7.10;;;5.60;93.80;;;;;;5092216;28;20116;-62
2022/03/12 06:33:08;;;;;;;10.27;5.88;;;5.70;93.50;;;;;;5092244;28;20048;-61
2022/03/12 06:35:34;;;;;;;9.18;6.47;;;5.70;94.20;;;;;;5092320;28;20036;-61
2022/03/12 06:38:00;;;;;;;9.40;6.63;;;5.70;93.60;;;;;;5092190;28;20047;-61
2022/03/12 06:40:28;;;;;;;10.40;6.20;;;5.60;93.90;;;;;;5092252;28;20040;-61
2022/03/12 06:42:56;;;;;;;7.45;5.93;;;5.70;94.10;;;;;;5092360;28;20049;-61
2022/03/12 06:45:30;;;;;;;14.55;6.18;;;5.60;94.60;;;;;;5091240;28;20121;-61
2022/03/12 06:47:56;;;;;;;10.10;6.55;;;5.60;94.10;;;;;;5092046;28;20071;-61
2022/03/12 06:50:24;;;;;;;8.93;5.80;;;5.70;94.20;;;;;;5092057;28;20036;-62
2022/03/12 06:52:50;;;;;;;8.90;5.97;;;5.70;94.70;;;;;;5092089;28;20093;-61
2022/03/12 06:55:23;;;;;;;10.35;6.32;;;5.70;94.90;;;;;;5092306;28;20032;-61
2022/03/12 06:57:51;;;;;;;7.97;5.95;;;5.70;94.60;;;;;;5089930;28;20047;-61
2022/03/12 07:00:21;;;;;;;10.13;6.47;;;5.70;94.80;;;;;;5071554;28;20513;-62
2022/03/12 07:02:47;;;;;;;9.00;5.88;;;5.70;94.40;;;;;;5071883;28;20097;-61
2022/03/12 07:05:13;;;;;;;7.78;5.88;;;5.70;94.40;;;;;;5071647;28;20032;-62
2022/03/12 07:07:39;;;;;;;11.30;6.05;;;5.70;94.60;;;;;;5071673;28;20375;-61
2022/03/12 07:10:07;;;;;;;11.25;6.35;;;5.70;95.10;;;;;;5069994;28;20063;-62
2022/03/12 07:12:32;;;;;;;8.20;5.95;;;5.70;94.60;;;;;;5071547;28;20068;-62
2022/03/12 07:14:58;;;;;;;10.48;6.65;;;5.80;94.80;;;;;;5071521;28;20060;-61
2022/03/12 07:17:24;;;;;;;15.07;6.07;;;5.80;95.10;;;;;;5071361;28;20040;-62
2022/03/12 07:19:50;;;;;;;12.32;6.57;;;5.80;95.00;;;;;;5071536;28;20486;-61
2022/03/12 07:22:16;;;;;;;8.50;6.43;;;5.90;94.90;;;;;;5071525;28;20044;-61
2022/03/12 07:24:42;;;;;;;10.65;6.30;;;5.90;94.90;;;;;;5070396;28;20068;-62
2022/03/12 07:27:08;;;;;;;12.80;6.43;;;5.90;94.60;;;;;;5071275;28;20079;-61
2022/03/12 07:29:34;;;;;;;9.20;6.32;;;5.90;94.70;;;;;;5071340;28;20029;-61
2022/03/12 07:32:00;;;;;;;8.73;6.57;;;5.90;95.00;;;;;;5071323;28;20060;-61
2022/03/12 07:34:26;;;;;;;11.30;6.03;;;6.00;94.80;;;;;;5072753;28;20493;-62
2022/03/12 07:36:52;;;;;;;8.55;6.60;;;6.30;94.70;;;;;;5074337;28;20045;-62
2022/03/12 07:39:20;;;;;;;8.25;6.00;;;6.60;93.70;;;;;;5075260;28;20044;-61
2022/03/12 07:41:46;;;;;;;11.48;6.60;;;6.80;93.10;;;;;;5075043;28;20486;-62
2022/03/12 07:44:11;;;;;;;10.65;6.57;;;6.90;92.90;;;;;;5075088;28;20040;-61
2022/03/12 07:46:37;;;;;;;10.35;7.20;;;7.00;92.50;;;;;;5085890;28;20048;-62
2022/03/12 07:49:03;;;;;;;10.07;6.63;;;7.20;92.70;;;;;;5089500;28;20123;-61
2022/03/12 07:51:29;;;;;;;10.00;6.47;;;7.40;92.60;;;;;;5095610;28;20036;-62
2022/03/12 07:53:59;;;;;;;8.40;5.72;;;7.70;91.90;;;;;;5095387;28;20036;-61
2022/03/12 07:56:24;;;;;;;9.23;6.25;;;7.90;91.60;;;;;;5095310;28;20097;-62
2022/03/12 07:58:50;;;;;;;9.60;6.13;;;8.10;91.20;;;;;;5095312;28;20482;-61
2022/03/12 08:01:15;;;;;;;10.93;6.25;;;8.40;90.60;;;;;;5089672;28;20040;-62
2022/03/12 08:03:41;;;;;;;8.80;6.70;;;8.60;90.70;;;;;;5103529;28;20139;-61
2022/03/12 08:06:09;;;;;;;12.80;6.28;;;8.70;89.50;;;;;;5074819;28;20099;-61
2022/03/12 08:08:35;;;;;;;9.75;6.72;;;8.80;89.30;;;;;;5074815;28;20120;-62
2022/03/12 08:13:46;;;;;;;10.52;6.80;;;9.40;87.20;;;;;;5074917;28;20044;-61
2022/03/12 08:16:15;;;;;;;10.98;6.55;;;9.40;84.80;;;;;;5086864;28;20394;-61
2022/03/12 08:18:42;;;;;;;10.77;6.97;;;9.50;85.10;;;;;;5095096;28;20048;-61
2022/03/12 08:21:08;;;;;;;9.55;6.93;;;9.50;86.60;;;;;;5094890;28;20101;-61
2022/03/12 08:23:35;;;;;;;15.75;7.65;;;9.80;85.30;;;;;;5093868;28;20048;-61
2022/03/12 08:26:00;;;;;;;11.55;7.50;;;10.10;86.30;;;;;;5094590;28;20073;-61
2022/03/12 08:28:26;;;;;;;12.85;7.15;;;10.00;85.00;;;;;;5094819;28;20044;-61
2022/03/12 08:30:52;;;;;;;11.38;7.05;;;10.10;85.40;;;;;;5094692;28;20422;-61
2022/03/12 08:33:20;;;;;;;9.45;6.93;;;10.30;85.00;;;;;;5094803;28;20044;-62
2022/03/12 08:35:49;;;;;;;9.07;6.63;;;10.60;86.30;;;;;;5094338;28;20477;-62
2022/03/12 08:38:15;;;;;;;9.57;7.28;;;10.70;85.40;;;;;;5082865;28;20402;-61
2022/03/12 08:40:41;;;;;;;8.75;6.63;;;10.80;83.40;;;;;;5076501;28;20494;-61
2022/03/12 08:43:06;;;;;;;10.90;7.15;;;11.10;85.10;;;;;;5077721;28;20040;-62
2022/03/12 08:45:32;;;;;;;11.63;7.85;;;11.10;83.80;;;;;;5093674;28;20052;-61
2022/03/12 08:47:58;;;;;;;10.55;6.93;;;11.30;83.80;;;;;;5091691;28;20036;-61
2022/03/12 08:50:25;;;;;;;10.75;7.38;;;11.60;83.20;;;;;;5094621;28;20096;-61
2022/03/12 08:52:52;;;;;;;9.38;7.13;;;11.80;83.50;;;;;;5074892;28;20044;-61
2022/03/12 08:55:17;;;;;;;11.57;7.65;;;11.80;83.50;;;;;;5094220;28;20449;-61
2022/03/12 08:57:43;;;;;;;12.20;7.15;;;11.90;82.40;;;;;;5094259;28;20086;-61
2022/03/12 09:00:12;;;;;;;10.50;7.18;;;12.00;82.90;;;;;;5094091;28;20119;-62
2022/03/12 09:02:39;;;;;;;15.35;7.97;;;11.90;82.20;;;;;;5094278;28;20470;-61
2022/03/12 09:05:06;;;;;;;8.73;7.05;;;12.30;84.20;;;;;;5094123;28;20457;-61
2022/03/12 09:07:33;;;;;;;12.98;7.13;;;12.00;82.10;;;;;;5093924;28;20109;-61
2022/03/12 09:10:00;;;;;;;10.52;7.88;;;12.10;83.80;;;;;;5082819;28;20143;-61
2022/03/12 09:12:25;;;;;;;13.48;7.45;;;12.00;84.20;;;;;;5074302;28;20129;-61
2022/03/12 09:14:54;;;;;;;10.20;7.88;;;12.40;84.00;;;;;;5090281;28;20063;-62
2022/03/12 09:17:21;;;;;;;12.27;7.60;;;12.40;86.20;;;;;;5094228;28;20039;-61
2022/03/12 09:19:46;;;;;;;11.95;7.80;;;12.30;85.20;;;;;;5082866;28;20043;-61
2022/03/12 09:22:12;;;;;;;11.50;7.97;;;12.40;85.60;;;;;;5093621;28;20035;-62
2022/03/12 09:24:40;;;;;;;11.20;7.95;;;12.50;84.80;;;;;;5093583;28;20028;-62
2022/03/12 09:27:07;;;;;;;11.32;7.63;;;12.50;84.50;;;;;;5093648;28;20394;-62
2022/03/12 09:29:34;;;;;;;10.48;7.47;;;12.50;85.90;;;;;;5078057;28;20520;-61
2022/03/12 09:32:00;;;;;;;11.52;9.02;;;12.80;85.90;;;;;;5091321;28;20563;-62
2022/03/12 09:34:26;;;;;;;12.07;7.80;;;12.70;87.50;;;;;;5089695;28;20032;-62
2022/03/12 09:36:52;;;;;;;11.75;7.90;;;12.90;87.60;;;;;;5093270;28;20028;-61
2022/03/12 09:39:18;;;;;;;11.48;7.93;;;13.10;88.20;;;;;;5093544;28;20122;-61
2022/03/12 09:41:44;;;;;;;12.55;8.25;;;13.10;88.80;;;;;;5093403;28;20036;-62
2022/03/12 09:44:10;;;;;;;14.35;8.23;;;13.20;90.00;;;;;;5093286;28;20079;-61
2022/03/12 09:46:36;;;;;;;10.35;8.15;;;13.30;90.10;;;;;;5093182;28;20048;-61
2022/03/12 09:49:04;;;;;;;12.18;7.70;;;13.30;90.30;;;;;;5093010;28;20043;-61
2022/03/12 09:51:31;;;;;;;11.38;7.93;;;13.10;91.30;;;;;;5093005;28;20036;-61
2022/03/12 09:53:58;;;;;;;16.13;8.63;;;13.20;91.70;;;;;;5092891;28;20065;-61
2022/03/12 09:56:24;;;;;;;11.50;8.55;;;13.10;91.30;;;;;;5082836;28;20043;-61
2022/03/12 09:58:50;;;;;;;13.73;8.02;;;13.20;91.90;;;;;;5084904;28;20036;-62
2022/03/12 10:01:16;;;;;;;11.65;8.23;;;13.30;92.70;;;;;;5092909;28;20044;-61
2022/03/12 10:03:42;;;;;;;14.57;9.13;;;13.20;93.20;;;;;;5092804;28;20440;-61
2022/03/12 10:06:10;;;;;;;16.50;7.72;;;13.30;93.30;;;;;;5092836;28;20046;-61
2022/03/12 10:08:36;;;;;;;10.60;8.18;;;13.30;93.00;;;;;;5092706;28;20040;-62
2022/03/12 10:11:04;;;;;;;11.60;8.15;;;13.30;93.90;;;;;;5092613;28;20503;-62
2022/03/12 10:13:30;;;;;;;14.85;8.48;;;13.40;94.20;;;;;;5091446;28;20048;-62
2022/03/12 10:15:56;;;;;;;10.75;8.13;;;13.50;94.00;;;;;;5092643;28;20051;-62
2022/03/12 10:18:22;;;;;;;12.07;8.80;;;13.40;94.90;;;;;;5088395;28;20363;-61
2022/03/12 10:20:48;;;;;;;10.25;7.82;;;13.50;95.10;;;;;;5092602;28;20454;-61
2022/03/12 10:23:14;;;;;;;10.93;8.30;;;13.70;95.30;;;;;;5092692;28;20036;-61
2022/03/12 10:25:39;;;;;;;10.10;7.97;;;13.40;95.80;;;;;;5092705;28;20032;-62
2022/03/12 10:28:05;;;;;;;11.57;7.78;;;13.40;95.90;;;;;;5092489;28;20040;-61
2022/03/12 10:30:31;;;;;;;10.68;7.85;;;13.50;96.00;;;;;;5085204;28;20127;-61
2022/03/12 10:32:57;;;;;;;12.20;8.60;;;13.60;96.10;;;;;;5072240;28;20116;-61
2022/03/12 10:35:23;;;;;;;13.43;8.35;;;13.70;96.60;;;;;;5072177;28;20041;-61
2022/03/12 10:37:53;;;;;;;11.15;8.15;;;13.90;96.00;;;;;;5072398;28;20048;-61
2022/03/12 10:40:25;;;;;;;11.65;8.77;;;14.00;96.90;;;;;;5072204;28;20051;-61
2022/03/12 10:42:58;;;;;;;13.63;8.68;;;14.20;98.00;;;;;;5074586;28;20051;-61
2022/03/12 10:45:39;;;;;;;18.20;8.45;;;14.10;98.30;;;;;;5092474;28;20032;-60
2022/03/12 10:48:05;;;;;;;11.40;7.55;;;14.10;98.30;;;;;;5092270;28;20044;-61
2022/03/12 10:50:44;;;;;;;12.02;9.05;;;14.00;98.20;;;;;;5092251;28;20043;-60
2022/03/12 10:53:11;;;;;;;14.87;9.00;;;13.90;98.90;;;;;;5092378;28;20119;-61
2022/03/12 10:55:41;;;;;;;12.35;7.88;;;13.90;99.20;;;;;;5092103;28;20345;-61
2022/03/12 10:58:15;;;;;;;14.48;8.73;;;13.80;99.80;;;;;;5079560;28;20036;-61
2022/03/12 11:00:54;;;;;;;12.57;8.25;;;13.80;99.40;;;;;;5084623;28;20031;-61
2022/03/12 11:03:22;;;;;;;10.52;8.27;;;13.90;99.90;;;;;;5085594;28;20036;-61
2022/03/12 11:05:50;;;;;;;12.80;8.47;;;13.90;99.90;;;;;;5091923;28;20032;-61
2022/03/12 11:08:19;;;;;;;13.18;9.18;;;13.90;99.90;;;;;;5090887;28;20632;-61
2022/03/12 11:10:50;;;;;;;12.82;8.23;;;14.00;99.90;;;;;;5094397;28;20046;-60
2022/03/12 11:13:25;;;;;;;12.80;8.93;;;14.00;99.90;;;;;;5108532;28;20043;-61
2022/03/12 11:16:14;;;;;;;10.63;8.25;;;14.20;99.90;;;;;;5116536;28;20040;-60
2022/03/12 11:18:57;;;;;;;12.60;8.85;;;14.20;99.90;;;;;;5116513;28;20039;-61
2022/03/12 11:21:37;;;;;;;15.23;9.57;;;14.30;99.90;;;;;;5116533;28;20043;-62
2022/03/12 11:24:23;;;;;;;12.88;7.78;;;14.20;99.90;;;;;;5105644;27;20055;-61
2022/03/12 11:27:01;;;;;;;21.05;8.63;;;14.40;99.90;;;;;;5096083;28;20507;-61
2022/03/12 11:29:28;;;;;;;10.23;6.07;;;14.50;99.90;;;;;;5094529;28;20566;-61
2022/03/12 11:31:59;;;;;;;12.13;6.47;;;14.70;99.90;;;;;;5095462;28;20567;-61
2022/03/12 11:34:25;;;;;;;7.68;5.85;;;14.80;99.90;;;;;;5094183;28;20539;-62
2022/03/12 11:36:57;;;;;;;9.52;5.88;;;14.70;99.90;;;;;;5094473;28;20036;-61
2022/03/12 11:39:47;;;;;;;9.30;6.05;;;14.90;99.90;;;;;;5092822;28;20040;-62
2022/03/12 11:42:15;;;;;;;8.65;6.35;;;14.70;99.90;;;;;;5075504;28;20036;-61
2022/03/12 11:44:59;;;;;;;10.35;5.43;;;14.80;99.90;;;;;;5075590;28;20056;-62
2022/03/12 11:47:40;;;;;;;11.13;6.43;;;14.80;99.90;;;;;;5075285;28;20056;-62
2022/03/12 11:50:12;;;;;;;10.75;6.65;;;14.90;99.90;;;;;;5094473;28;20046;-61
2022/03/12 11:52:37;;;;;;;8.18;6.07;;;15.00;99.90;;;;;;5094408;28;20040;-61
2022/03/12 11:55:12;;;;;;;10.00;5.32;;;15.00;99.90;;;;;;5091044;28;20051;-61
2022/03/12 11:57:37;;;;;;;10.60;6.22;;;15.00;99.90;;;;;;5092394;28;20899;-61
2022/03/12 12:00:11;;;;;;;9.63;6.30;;;15.00;99.90;;;;;;5092815;28;20032;-62
2022/03/12 12:02:37;;;;;;;10.50;5.75;;;15.10;99.90;;;;;;5095224;28;20103;-61
2022/03/12 12:05:12;;;;;;;9.27;6.00;;;15.10;99.90;;;;;;5095471;28;20378;-61
2022/03/12 12:07:39;;;;;;;8.38;5.97;;;15.30;99.90;;;;;;5095362;28;20118;-61
2022/03/12 12:10:10;;;;;;;12.05;5.57;;;15.20;99.90;;;;;;5077547;28;20072;-61
2022/03/12 12:12:36;;;;;;;9.35;5.57;;;15.40;99.90;;;;;;5095333;28;20035;-61
2022/03/12 12:15:04;;;;;;;11.98;6.05;;;15.50;99.90;;;;;;5094866;28;20036;-61
2022/03/12 12:17:32;;;;;;;8.25;6.30;;;15.50;99.90;;;;;;5077206;28;20048;-59
2022/03/12 12:20:00;;;;;;;10.27;6.97;;;15.50;99.90;;;;;;5074484;28;20032;-59
2022/03/12 12:22:27;;;;;;;8.35;5.75;;;15.30;99.90;;;;;;5075486;28;20040;-59
2022/03/12 12:24:55;;;;;;;13.65;5.53;;;15.30;99.90;;;;;;5093995;28;20040;-58
2022/03/12 12:27:23;;;;;;;8.40;5.88;;;15.30;99.90;;;;;;5093485;28;20040;-60
2022/03/12 12:29:56;;;;;;;9.85;5.88;;;15.20;99.90;;;;;;5093741;28;20539;-59
2022/03/12 12:32:26;;;;;;;9.65;6.07;;;15.40;99.90;;;;;;5094586;28;20076;-59
2022/03/12 12:35:04;;;;;;;8.30;5.90;;;15.50;99.90;;;;;;5094606;28;20590;-59
2022/03/12 12:37:48;;;;;;;8.93;5.45;;;15.30;99.90;;;;;;5093152;28;20048;-59
2022/03/12 12:40:21;;;;;;;9.32;6.10;;;15.30;99.90;;;;;;5094392;28;20046;-59
2022/03/12 12:42:49;;;;;;;7.78;5.97;;;15.40;99.90;;;;;;5094625;28;20040;-59
2022/03/12 12:45:17;;;;;;;7.45;5.97;;;15.50;99.90;;;;;;5094683;28;20071;-59
2022/03/12 12:47:43;;;;;;;6.90;5.22;;;15.40;99.90;;;;;;5094311;28;20055;-61
2022/03/12 12:50:24;;;;;;;8.13;5.28;;;15.20;99.90;;;;;;5094616;28;20522;-61